Time,TemperatureF,DewpointF,PressureIn,WindDirection,WindDirectionDegrees,WindSpeedMPH,WindSpeedGustMPH,Humidity,HourlyPrecipIn,Conditions,Clouds,dailyrainin,SolarRadiationWatts/m^2,SoftwareType,DateUTC
2013-09-13 00:01:00,59.8,59.2,29.83,NE,47,0.0,0.0,98,0.12,,,0.00,0,WeatherCatV1.21B27,2013-09-13 04:01:00,
2013-09-13 00:06:00,59.9,59.3,29.83,NE,47,0.0,0.0,98,0.08,,,0.00,0,WeatherCatV1.21B27,2013-09-13 04:06:00,
2013-09-13 00:11:00,59.9,59.3,29.83,NE,47,0.0,0.0,98,0.05,,,0.00,0,WeatherCatV1.21B27,2013-09-13 04:11:00,
2013-09-13 00:16:00,59.9,59.3,29.83,NE,47,0.0,0.0,98,0.00,,,0.00,0,WeatherCatV1.21B27,2013-09-13 04:16:00,
2013-09-13 00:21:00,59.8,59.2,29.83,NE,47,0.0,0.0,98,0.00,,,0.00,0,WeatherCatV1.21B27,2013-09-13 04:21:00,
2013-09-13 00:26:00,59.7,59.1,29.83,NE,47,0.0,0.0,98,0.00,,,0.00,0,WeatherCatV1.21B27,2013-09-13 04:26:00,
2013-09-13 00:31:00,59.7,59.7,29.83,NE,47,0.0,0.0,100,0.00,,,0.00,0,WeatherCatV1.21B27,2013-09-13 04:31:00,
2013-09-13 00:36:00,59.7,59.7,29.83,NE,47,0.0,0.0,100,0.00,,,0.00,0,WeatherCatV1.21B27,2013-09-13 04:36:00,
2013-09-13 00:41:00,59.8,59.5,29.83,NE,46,0.0,0.0,99,0.00,,,0.00,0,WeatherCatV1.21B27,2013-09-13 04:41:00,
2013-09-13 00:46:00,59.7,59.1,29.82,NE,46,0.0,0.0,98,0.00,,,0.00,0,WeatherCatV1.21B27,2013-09-13 04:46:00,
2013-09-13 00:51:00,59.6,59.0,29.82,NE,46,0.0,0.0,98,0.00,,,0.00,0,WeatherCatV1.21B27,2013-09-13 04:51:00,
2013-09-13 00:56:00,59.5,58.9,29.83,NE,46,0.0,0.0,98,0.00,,,0.00,0,WeatherCatV1.21B27,2013-09-13 04:56:00,
2013-09-13 01:01:00,59.4,58.8,29.82,NE,46,0.0,1.0,98,0.00,,,0.00,0,WeatherCatV1.21B27,2013-09-13 05:01:00,
2013-09-13 01:06:00,59.4,58.8,29.83,NE,46,0.0,0.0,98,0.00,,,0.00,0,WeatherCatV1.21B27,2013-09-13 05:06:00,
2013-09-13 01:11:00,59.4,59.1,29.83,NE,46,0.0,0.0,99,0.00,,,0.00,0,WeatherCatV1.21B27,2013-09-13 05:11:00,
2013-09-13 01:16:00,59.4,59.1,29.82,NE,46,0.0,0.0,99,0.00,,,0.00,0,WeatherCatV1.21B27,2013-09-13 05:16:00,
2013-09-13 01:21:00,59.3,59.0,29.82,NE,47,0.0,1.0,99,0.00,,,0.00,0,WeatherCatV1.21B27,2013-09-13 05:21:00,
2013-09-13 01:26:00,59.0,58.4,29.82,NE,47,0.0,0.0,98,0.00,,,0.00,0,WeatherCatV1.21B27,2013-09-13 05:26:00,
2013-09-13 01:31:00,59.0,58.4,29.82,NE,47,0.0,0.0,98,0.00,,,0.00,0,WeatherCatV1.21B27,2013-09-13 05:31:00,
2013-09-13 01:36:00,59.0,58.4,29.82,NE,47,0.0,0.0,98,0.00,,,0.00,0,WeatherCatV1.21B27,2013-09-13 05:36:00,
2013-09-13 01:41:00,59.0,58.7,29.82,NE,47,0.0,2.0,99,0.00,,,0.00,0,WeatherCatV1.21B27,2013-09-13 05:41:00,
2013-09-13 01:46:00,59.0,58.7,29.82,NE,46,0.0,0.0,99,0.00,,,0.00,0,WeatherCatV1.21B27,2013-09-13 05:46:00,
2013-09-13 01:51:00,58.9,58.6,29.82,WNW,298,0.0,6.0,99,0.00,,,0.00,0,WeatherCatV1.21B27,2013-09-13 05:51:00,
2013-09-13 01:56:00,58.7,58.4,29.82,NNE,16,0.0,0.0,99,0.00,,,0.01,0,WeatherCatV1.21B27,2013-09-13 05:56:00,
2013-09-13 02:01:00,58.5,58.2,29.82,East,80,0.0,5.0,99,0.00,,,0.01,0,WeatherCatV1.21B27,2013-09-13 06:01:00,
2013-09-13 02:06:00,58.5,58.2,29.82,NNE,15,0.0,4.0,99,0.00,,,0.01,0,WeatherCatV1.21B27,2013-09-13 06:06:00,
2013-09-13 02:11:00,58.4,57.8,29.83,NW,311,0.0,5.0,98,0.00,,,0.01,0,WeatherCatV1.21B27,2013-09-13 06:11:00,
2013-09-13 02:16:00,58.3,57.7,29.83,NNW,331,0.0,3.0,98,0.00,,,0.01,0,WeatherCatV1.21B27,2013-09-13 06:16:00,
2013-09-13 02:21:00,58.2,57.9,29.82,NNW,342,0.0,1.0,99,0.00,,,0.01,0,WeatherCatV1.21B27,2013-09-13 06:21:00,
2013-09-13 02:26:00,58.1,57.8,29.82,NNW,331,0.0,0.0,99,0.00,,,0.01,0,WeatherCatV1.21B27,2013-09-13 06:26:00,
2013-09-13 02:31:00,58.0,57.4,29.82,North,1,0.0,6.0,98,0.00,,,0.01,0,WeatherCatV1.21B27,2013-09-13 06:31:00,
2013-09-13 02:36:00,58.0,57.4,29.82,North,6,0.0,5.0,98,0.00,,,0.01,0,WeatherCatV1.21B27,2013-09-13 06:36:00,
2013-09-13 02:41:00,58.0,57.4,29.82,North,1,0.0,3.0,98,0.00,,,0.01,0,WeatherCatV1.21B27,2013-09-13 06:41:00,
2013-09-13 02:46:00,58.0,57.4,29.82,North,354,0.0,2.0,98,0.00,,,0.01,0,WeatherCatV1.21B27,2013-09-13 06:46:00,
2013-09-13 02:51:00,58.1,57.5,29.82,North,6,0.0,2.0,98,0.00,,,0.01,0,WeatherCatV1.21B27,2013-09-13 06:51:00,
2013-09-13 02:56:00,58.1,57.5,29.82,NNW,332,2.0,7.0,98,0.00,,,0.01,0,WeatherCatV1.21B27,2013-09-13 06:56:00,
2013-09-13 03:01:00,58.1,57.5,29.82,North,1,2.0,6.0,98,0.00,,,0.01,0,WeatherCatV1.21B27,2013-09-13 07:01:00,
2013-09-13 03:06:00,58.1,57.5,29.82,NNW,341,9.0,9.0,98,0.00,,,0.01,0,WeatherCatV1.21B27,2013-09-13 07:06:00,
2013-09-13 03:11:00,58.0,57.4,29.82,NW,324,6.0,6.0,98,0.00,,,0.01,0,WeatherCatV1.21B27,2013-09-13 07:11:00,
2013-09-13 03:16:00,57.9,57.3,29.82,NW,325,3.0,4.0,98,0.00,,,0.01,0,WeatherCatV1.21B27,2013-09-13 07:16:00,
2013-09-13 03:21:00,57.9,57.3,29.82,NNW,335,0.0,6.0,98,0.00,,,0.01,0,WeatherCatV1.21B27,2013-09-13 07:21:00,
2013-09-13 03:26:00,57.9,57.3,29.82,NW,323,0.0,1.0,98,0.00,,,0.01,0,WeatherCatV1.21B27,2013-09-13 07:26:00,
2013-09-13 03:31:00,57.9,57.0,29.82,NNW,331,4.0,6.0,97,0.00,,,0.01,0,WeatherCatV1.21B27,2013-09-13 07:31:00,
2013-09-13 03:36:00,57.9,57.0,29.82,NW,314,0.0,3.0,97,0.00,,,0.01,0,WeatherCatV1.21B27,2013-09-13 07:36:00,
2013-09-13 03:41:00,58.0,57.2,29.82,NW,306,0.0,6.0,97,0.00,,,0.01,0,WeatherCatV1.21B27,2013-09-13 07:41:00,
2013-09-13 03:46:00,58.0,57.2,29.82,NW,317,2.0,4.0,97,0.00,,,0.01,0,WeatherCatV1.21B27,2013-09-13 07:46:00,
2013-09-13 03:51:00,58.0,56.9,29.82,NNW,335,0.0,2.0,96,0.00,,,0.01,0,WeatherCatV1.21B27,2013-09-13 07:51:00,
2013-09-13 03:56:00,57.9,56.8,29.82,NNW,344,2.0,6.0,96,0.00,,,0.01,0,WeatherCatV1.21B27,2013-09-13 07:56:00,
2013-09-13 04:01:00,57.9,56.8,29.82,NW,319,0.0,7.0,96,0.00,,,0.01,0,WeatherCatV1.21B27,2013-09-13 08:01:00,
2013-09-13 04:06:00,58.0,56.9,29.82,NNW,330,3.0,4.0,96,0.00,,,0.01,0,WeatherCatV1.21B27,2013-09-13 08:06:00,
2013-09-13 04:11:00,58.0,56.9,29.82,NNW,333,6.0,9.0,96,0.00,,,0.01,0,WeatherCatV1.21B27,2013-09-13 08:11:00,
2013-09-13 04:16:00,58.0,56.6,29.83,North,1,3.0,13.0,95,0.00,,,0.01,0,WeatherCatV1.21B27,2013-09-13 08:16:00,
2013-09-13 04:21:00,58.0,56.6,29.83,NW,317,1.0,9.0,95,0.00,,,0.01,0,WeatherCatV1.21B27,2013-09-13 08:21:00,
2013-09-13 04:26:00,58.0,56.6,29.83,North,354,6.0,7.0,95,0.00,,,0.01,0,WeatherCatV1.21B27,2013-09-13 08:26:00,
2013-09-13 04:31:00,58.1,56.4,29.83,NNW,344,2.0,14.0,94,0.00,,,0.01,0,WeatherCatV1.21B27,2013-09-13 08:31:00,
2013-09-13 04:36:00,58.1,56.4,29.83,NW,307,0.0,13.0,94,0.00,,,0.01,0,WeatherCatV1.21B27,2013-09-13 08:36:00,
2013-09-13 04:41:00,58.1,56.4,29.83,WNW,282,6.0,17.0,94,0.00,,,0.01,0,WeatherCatV1.21B27,2013-09-13 08:41:00,
2013-09-13 04:46:00,58.1,56.4,29.83,NNW,328,1.0,7.0,94,0.00,,,0.01,0,WeatherCatV1.21B27,2013-09-13 08:46:00,
2013-09-13 04:51:00,58.2,56.2,29.83,NW,318,13.0,13.0,93,0.00,,,0.01,0,WeatherCatV1.21B27,2013-09-13 08:51:00,
2013-09-13 04:56:00,58.2,56.2,29.83,NW,320,4.0,12.0,93,0.00,,,0.01,0,WeatherCatV1.21B27,2013-09-13 08:56:00,
2013-09-13 05:01:00,58.2,56.2,29.83,North,349,1.0,7.0,93,0.00,,,0.01,0,WeatherCatV1.21B27,2013-09-13 09:01:00,
2013-09-13 05:06:00,58.2,55.9,29.83,NNW,327,0.0,3.0,92,0.00,,,0.01,0,WeatherCatV1.21B27,2013-09-13 09:06:00,
2013-09-13 05:11:00,58.2,55.9,29.83,NW,312,1.0,7.0,92,0.00,,,0.01,0,WeatherCatV1.21B27,2013-09-13 09:11:00,
2013-09-13 05:16:00,58.1,55.8,29.83,NNW,335,2.0,13.0,92,0.00,,,0.01,0,WeatherCatV1.21B27,2013-09-13 09:16:00,
2013-09-13 05:21:00,58.1,55.8,29.83,North,356,2.0,11.0,92,0.00,,,0.01,0,WeatherCatV1.21B27,2013-09-13 09:21:00,
2013-09-13 05:26:00,58.1,55.8,29.83,NW,323,0.0,11.0,92,0.00,,,0.01,0,WeatherCatV1.21B27,2013-09-13 09:26:00,
2013-09-13 05:31:00,58.1,55.8,29.83,NNW,329,0.0,3.0,92,0.00,,,0.01,0,WeatherCatV1.21B27,2013-09-13 09:31:00,
2013-09-13 05:36:00,58.1,55.8,29.83,NW,318,5.0,16.0,92,0.00,,,0.01,0,WeatherCatV1.21B27,2013-09-13 09:36:00,
2013-09-13 05:41:00,58.1,55.8,29.83,NW,323,5.0,6.0,92,0.00,,,0.01,0,WeatherCatV1.21B27,2013-09-13 09:41:00,
2013-09-13 05:46:00,58.1,55.8,29.83,NW,320,5.0,12.0,92,0.00,,,0.01,0,WeatherCatV1.21B27,2013-09-13 09:46:00,
2013-09-13 05:51:00,58.0,55.7,29.83,NW,312,0.0,1.0,92,0.00,,,0.01,0,WeatherCatV1.21B27,2013-09-13 09:51:00,
2013-09-13 05:56:00,58.0,55.7,29.83,North,356,2.0,2.0,92,0.00,,,0.01,0,WeatherCatV1.21B27,2013-09-13 09:56:00,
2013-09-13 06:01:00,58.0,55.4,29.83,NW,324,7.0,11.0,91,0.00,,,0.01,0,WeatherCatV1.21B27,2013-09-13 10:01:00,
2013-09-13 06:06:00,57.9,55.3,29.83,NNE,32,3.0,4.0,91,0.00,,,0.01,0,WeatherCatV1.21B27,2013-09-13 10:06:00,
2013-09-13 06:11:00,57.8,55.2,29.84,North,1,1.0,6.0,91,0.00,,,0.01,0,WeatherCatV1.21B27,2013-09-13 10:11:00,
2013-09-13 06:16:00,57.8,55.2,29.84,WNW,295,2.0,5.0,91,0.00,,,0.01,0,WeatherCatV1.21B27,2013-09-13 10:16:00,
2013-09-13 06:21:00,57.7,55.1,29.84,WNW,301,2.0,9.0,91,0.00,,,0.01,0,WeatherCatV1.21B27,2013-09-13 10:21:00,
2013-09-13 06:25:00,57.7,55.1,29.84,NW,325,1.0,17.0,91,0.00,,,0.01,0,WeatherCatV1.21B27,2013-09-13 10:25:00,
2013-09-13 06:30:00,57.7,54.8,29.84,NE,44,0.0,19.0,90,0.00,,,0.01,0,WeatherCatV1.21B27,2013-09-13 10:30:00,
2013-09-13 06:35:00,57.6,55.0,29.84,NNW,329,4.0,18.0,91,0.00,,,0.01,0,WeatherCatV1.21B27,2013-09-13 10:35:00,
2013-09-13 06:41:00,57.6,55.0,29.84,NW,305,10.0,12.0,91,0.00,,,0.01,0,WeatherCatV1.21B27,2013-09-13 10:41:00,
2013-09-13 06:46:00,57.6,55.0,29.84,NNW,335,5.0,12.0,91,0.00,,,0.01,0,WeatherCatV1.21B27,2013-09-13 10:46:00,
2013-09-13 06:50:00,57.6,55.0,29.85,NNW,335,5.0,11.0,91,0.00,,,0.01,0,WeatherCatV1.21B27,2013-09-13 10:50:00,
2013-09-13 06:55:00,57.5,54.9,29.85,NNW,334,0.0,12.0,91,0.00,,,0.01,0,WeatherCatV1.21B27,2013-09-13 10:55:00,
2013-09-13 07:00:00,57.6,55.0,29.85,NNW,335,0.0,6.0,91,0.00,,,0.01,0,WeatherCatV1.21B27,2013-09-13 11:00:00,
2013-09-13 07:05:00,57.5,54.9,29.85,NW,323,0.0,15.0,91,0.00,,,0.01,0,WeatherCatV1.21B27,2013-09-13 11:05:00,
2013-09-13 07:10:00,57.5,54.9,29.86,NW,313,6.0,13.0,91,0.00,,,0.01,0,WeatherCatV1.21B27,2013-09-13 11:10:00,
2013-09-13 07:15:00,57.5,54.9,29.86,NNE,29,5.0,12.0,91,0.00,,,0.01,0,WeatherCatV1.21B27,2013-09-13 11:15:00,
2013-09-13 07:20:00,57.6,55.0,29.86,WNW,285,7.0,18.0,91,0.00,,,0.01,0,WeatherCatV1.21B27,2013-09-13 11:20:00,
2013-09-13 07:25:00,57.6,55.0,29.86,NNW,336,6.0,8.0,91,0.00,,,0.01,5,WeatherCatV1.21B27,2013-09-13 11:25:00,
2013-09-13 07:30:00,57.7,55.1,29.86,NW,324,10.0,10.0,91,0.00,,,0.01,5,WeatherCatV1.21B27,2013-09-13 11:30:00,
2013-09-13 07:35:00,57.8,55.2,29.86,NW,306,5.0,12.0,91,0.00,,,0.01,11,WeatherCatV1.21B27,2013-09-13 11:35:00,
2013-09-13 07:40:00,57.9,55.3,29.86,WNW,294,3.0,11.0,91,0.00,,,0.01,7,WeatherCatV1.21B27,2013-09-13 11:40:00,
2013-09-13 07:45:00,57.9,55.3,29.86,NNW,329,2.0,3.0,91,0.00,,,0.01,21,WeatherCatV1.21B27,2013-09-13 11:45:00,
2013-09-13 07:50:00,58.0,55.4,29.86,NW,308,0.0,5.0,91,0.00,,,0.01,30,WeatherCatV1.21B27,2013-09-13 11:50:00,
2013-09-13 07:55:00,58.0,55.4,29.86,NW,305,6.0,11.0,91,0.00,,,0.01,28,WeatherCatV1.21B27,2013-09-13 11:55:00,
2013-09-13 08:00:00,58.0,55.4,29.86,NW,316,10.0,15.0,91,0.00,,,0.01,14,WeatherCatV1.21B27,2013-09-13 12:00:00,
2013-09-13 08:05:00,57.9,55.3,29.86,WNW,301,5.0,13.0,91,0.00,,,0.01,12,WeatherCatV1.21B27,2013-09-13 12:05:00,
2013-09-13 08:10:00,57.9,55.3,29.87,NW,324,3.0,14.0,91,0.00,,,0.01,16,WeatherCatV1.21B27,2013-09-13 12:10:00,
2013-09-13 08:15:00,57.9,55.0,29.86,North,349,12.0,13.0,90,0.00,,,0.01,32,WeatherCatV1.21B27,2013-09-13 12:15:00,
2013-09-13 08:20:00,57.9,55.0,29.86,North,11,4.0,15.0,90,0.00,,,0.01,18,WeatherCatV1.21B27,2013-09-13 12:20:00,
2013-09-13 08:25:00,57.9,55.0,29.86,NNW,329,3.0,13.0,90,0.00,,,0.01,12,WeatherCatV1.21B27,2013-09-13 12:25:00,
2013-09-13 08:30:00,57.9,55.0,29.87,NNW,329,5.0,10.0,90,0.00,,,0.01,23,WeatherCatV1.21B27,2013-09-13 12:30:00,
2013-09-13 08:35:00,57.8,54.9,29.87,NW,317,6.0,11.0,90,0.00,,,0.01,25,WeatherCatV1.21B27,2013-09-13 12:35:00,
2013-09-13 08:40:00,57.8,54.9,29.87,North,1,0.0,13.0,90,0.00,,,0.01,47,WeatherCatV1.21B27,2013-09-13 12:40:00,
2013-09-13 08:45:00,57.9,54.7,29.87,NNE,21,1.0,3.0,89,0.00,,,0.01,65,WeatherCatV1.21B27,2013-09-13 12:45:00,
2013-09-13 08:50:00,57.9,54.7,29.87,NNW,342,2.0,10.0,89,0.00,,,0.01,79,WeatherCatV1.21B27,2013-09-13 12:50:00,
2013-09-13 08:55:00,58.0,54.5,29.87,NNW,347,0.0,10.0,88,0.00,,,0.01,42,WeatherCatV1.21B27,2013-09-13 12:55:00,
2013-09-13 09:00:00,58.1,54.6,29.88,North,6,0.0,1.0,88,0.00,,,0.01,25,WeatherCatV1.21B27,2013-09-13 13:00:00,
2013-09-13 09:05:00,58.2,54.3,29.88,NNW,333,7.0,7.0,87,0.00,,,0.01,33,WeatherCatV1.21B27,2013-09-13 13:05:00,
2013-09-13 09:10:00,58.1,54.2,29.88,North,355,0.0,4.0,87,0.00,,,0.01,51,WeatherCatV1.21B27,2013-09-13 13:10:00,
2013-09-13 09:15:00,58.1,53.9,29.88,NW,326,7.0,7.0,86,0.00,,,0.01,109,WeatherCatV1.21B27,2013-09-13 13:15:00,
2013-09-13 09:20:00,58.2,54.0,29.89,North,11,0.0,5.0,86,0.00,,,0.01,111,WeatherCatV1.21B27,2013-09-13 13:20:00,
2013-09-13 09:25:00,58.3,54.1,29.89,North,11,0.0,2.0,86,0.00,,,0.01,102,WeatherCatV1.21B27,2013-09-13 13:25:00,
2013-09-13 09:30:00,58.5,54.3,29.89,NNE,29,2.0,3.0,86,0.00,,,0.01,70,WeatherCatV1.21B27,2013-09-13 13:30:00,
2013-09-13 09:35:00,58.4,53.9,29.89,NNW,342,2.0,5.0,85,0.00,,,0.01,107,WeatherCatV1.21B27,2013-09-13 13:35:00,
2013-09-13 09:40:00,58.4,53.9,29.89,North,1,0.0,5.0,85,0.00,,,0.01,146,WeatherCatV1.21B27,2013-09-13 13:40:00,
2013-09-13 09:45:00,58.5,53.7,29.89,ENE,59,2.0,6.0,84,0.00,,,0.01,81,WeatherCatV1.21B27,2013-09-13 13:45:00,
2013-09-13 09:50:00,58.5,53.7,29.89,NE,48,6.0,7.0,84,0.00,,,0.01,127,WeatherCatV1.21B27,2013-09-13 13:50:00,
2013-09-13 09:55:00,58.4,53.6,29.89,NE,39,0.0,6.0,84,0.00,,,0.01,128,WeatherCatV1.21B27,2013-09-13 13:55:00,
2013-09-13 10:00:00,58.4,53.2,29.89,NNW,336,0.0,6.0,83,0.00,,,0.01,155,WeatherCatV1.21B27,2013-09-13 14:00:00,
2013-09-13 10:05:00,58.5,53.3,29.90,NNE,17,10.0,10.0,83,0.00,,,0.01,195,WeatherCatV1.21B27,2013-09-13 14:05:00,
2013-09-13 10:10:00,58.6,53.5,29.90,NNW,340,3.0,18.0,83,0.00,,,0.01,153,WeatherCatV1.21B27,2013-09-13 14:10:00,
2013-09-13 10:15:00,58.4,53.6,29.90,North,6,0.0,6.0,84,0.00,,,0.01,60,WeatherCatV1.21B27,2013-09-13 14:15:00,
2013-09-13 10:20:00,58.0,53.8,29.91,North,352,2.0,15.0,86,0.00,,,0.02,77,WeatherCatV1.21B27,2013-09-13 14:20:00,
2013-09-13 10:25:00,57.4,53.9,29.91,NNW,334,3.0,13.0,88,0.00,,,0.02,128,WeatherCatV1.21B27,2013-09-13 14:25:00,
2013-09-13 10:30:00,56.7,53.5,29.91,NNW,346,4.0,6.0,89,0.00,,,0.02,105,WeatherCatV1.21B27,2013-09-13 14:30:00,
2013-09-13 10:35:00,56.1,53.5,29.92,North,11,3.0,7.0,91,0.57,,,0.06,100,WeatherCatV1.21B27,2013-09-13 14:35:00,
2013-09-13 10:40:00,55.6,53.3,29.92,NE,39,0.0,2.0,92,0.20,,,0.07,146,WeatherCatV1.21B27,2013-09-13 14:40:00,
2013-09-13 10:45:00,55.4,53.4,29.92,North,6,0.0,3.0,93,0.07,,,0.07,74,WeatherCatV1.21B27,2013-09-13 14:45:00,
2013-09-13 10:50:00,55.3,53.3,29.93,NE,50,0.0,4.0,93,0.07,,,0.08,107,WeatherCatV1.21B27,2013-09-13 14:50:00,
2013-09-13 10:55:00,55.1,53.4,29.93,NE,39,5.0,5.0,94,0.07,,,0.08,163,WeatherCatV1.21B27,2013-09-13 14:55:00,
2013-09-13 11:00:00,54.8,53.1,29.93,NE,36,1.0,10.0,94,0.05,,,0.09,186,WeatherCatV1.21B27,2013-09-13 15:00:00,
2013-09-13 11:05:00,54.8,53.1,29.93,NE,39,0.0,1.0,94,0.11,,,0.10,181,WeatherCatV1.21B27,2013-09-13 15:05:00,
2013-09-13 11:10:00,54.8,53.4,29.94,NE,34,0.0,3.0,95,0.09,,,0.10,183,WeatherCatV1.21B27,2013-09-13 15:10:00,
2013-09-13 11:15:00,54.6,53.2,29.94,NNE,28,0.0,5.0,95,0.07,,,0.11,192,WeatherCatV1.21B27,2013-09-13 15:15:00,
2013-09-13 11:20:00,54.6,53.2,29.94,NE,36,0.0,0.0,95,0.07,,,0.11,149,WeatherCatV1.21B27,2013-09-13 15:20:00,
2013-09-13 11:25:00,54.6,53.2,29.94,ENE,75,0.0,1.0,95,0.05,,,0.11,174,WeatherCatV1.21B27,2013-09-13 15:25:00,
2013-09-13 11:30:00,54.8,53.7,29.94,ENE,75,0.0,0.0,96,0.04,,,0.12,118,WeatherCatV1.21B27,2013-09-13 15:30:00,
2013-09-13 11:35:00,54.8,53.7,29.94,ENE,62,0.0,0.0,96,0.04,,,0.12,127,WeatherCatV1.21B27,2013-09-13 15:35:00,
2013-09-13 11:40:00,54.6,53.5,29.94,NE,34,3.0,11.0,96,0.04,,,0.12,183,WeatherCatV1.21B27,2013-09-13 15:40:00,
2013-09-13 11:45:00,54.6,53.5,29.94,ENE,77,0.0,0.0,96,0.04,,,0.12,197,WeatherCatV1.21B27,2013-09-13 15:45:00,
2013-09-13 11:50:00,54.8,53.7,29.94,North,6,0.0,0.0,96,0.00,,,0.12,199,WeatherCatV1.21B27,2013-09-13 15:50:00,
2013-09-13 11:55:00,54.9,53.8,29.95,NE,55,0.0,6.0,96,0.00,,,0.12,120,WeatherCatV1.21B27,2013-09-13 15:55:00,
2013-09-13 12:00:00,54.5,53.1,29.95,NNE,30,0.0,8.0,95,0.00,,,0.12,132,WeatherCatV1.21B27,2013-09-13 16:00:00,
2013-09-13 12:05:00,54.4,53.0,29.95,NE,39,0.0,7.0,95,0.00,,,0.12,132,WeatherCatV1.21B27,2013-09-13 16:05:00,
2013-09-13 12:10:00,54.5,53.1,29.95,NNE,25,0.0,4.0,95,0.00,,,0.12,142,WeatherCatV1.21B27,2013-09-13 16:10:00,
2013-09-13 12:15:00,54.7,53.3,29.95,NNW,342,0.0,4.0,95,0.00,,,0.12,165,WeatherCatV1.21B27,2013-09-13 16:15:00,
2013-09-13 12:20:00,54.8,53.4,29.95,North,350,3.0,7.0,95,0.00,,,0.12,130,WeatherCatV1.21B27,2013-09-13 16:20:00,
2013-09-13 12:25:00,54.7,53.0,29.95,North,1,0.0,2.0,94,0.00,,,0.12,132,WeatherCatV1.21B27,2013-09-13 16:25:00,
2013-09-13 12:30:00,54.8,53.1,29.95,NNE,28,0.0,4.0,94,0.00,,,0.12,165,WeatherCatV1.21B27,2013-09-13 16:30:00,
2013-09-13 12:35:00,54.9,53.2,29.95,NNE,19,0.0,3.0,94,0.00,,,0.12,149,WeatherCatV1.21B27,2013-09-13 16:35:00,
2013-09-13 12:40:00,55.1,53.4,29.95,NNE,19,0.0,0.0,94,0.00,,,0.12,178,WeatherCatV1.21B27,2013-09-13 16:40:00,
2013-09-13 12:45:00,55.1,53.4,29.95,NNE,19,0.0,3.0,94,0.00,,,0.12,132,WeatherCatV1.21B27,2013-09-13 16:45:00,
2013-09-13 12:50:00,55.2,53.5,29.95,NNE,17,0.0,1.0,94,0.00,,,0.12,146,WeatherCatV1.21B27,2013-09-13 16:50:00,
2013-09-13 12:55:00,55.3,53.6,29.95,NE,44,0.0,2.0,94,0.00,,,0.12,123,WeatherCatV1.21B27,2013-09-13 16:55:00,
2013-09-13 13:00:00,55.3,53.3,29.95,NE,38,2.0,5.0,93,0.00,,,0.13,132,WeatherCatV1.21B27,2013-09-13 17:00:00,
2013-09-13 13:05:00,55.1,53.1,29.95,NNW,343,2.0,7.0,93,0.00,,,0.13,134,WeatherCatV1.21B27,2013-09-13 17:05:00,
2013-09-13 13:10:00,55.0,52.7,29.95,NNE,20,10.0,10.0,92,0.00,,,0.13,116,WeatherCatV1.21B27,2013-09-13 17:10:00,
2013-09-13 13:15:00,54.9,52.3,29.95,North,352,1.0,6.0,91,0.00,,,0.13,123,WeatherCatV1.21B27,2013-09-13 17:15:00,
2013-09-13 13:20:00,55.0,52.4,29.95,NNE,31,7.0,10.0,91,0.00,,,0.13,120,WeatherCatV1.21B27,2013-09-13 17:20:00,
2013-09-13 13:25:00,55.0,52.1,29.95,NNW,336,0.0,5.0,90,0.00,,,0.13,153,WeatherCatV1.21B27,2013-09-13 17:25:00,
2013-09-13 13:30:00,55.2,52.6,29.95,NNW,334,0.0,4.0,91,0.00,,,0.13,188,WeatherCatV1.21B27,2013-09-13 17:30:00,
2013-09-13 13:35:00,55.3,52.4,29.95,NE,42,3.0,6.0,90,0.00,,,0.13,158,WeatherCatV1.21B27,2013-09-13 17:35:00,
2013-09-13 13:40:00,55.4,52.5,29.95,NE,54,0.0,4.0,90,0.00,,,0.13,230,WeatherCatV1.21B27,2013-09-13 17:40:00,
2013-09-13 13:45:00,55.8,52.9,29.95,NW,321,0.0,5.0,90,0.00,,,0.13,243,WeatherCatV1.21B27,2013-09-13 17:45:00,
2013-09-13 13:50:00,56.0,52.8,29.95,NE,39,4.0,13.0,89,0.00,,,0.13,169,WeatherCatV1.21B27,2013-09-13 17:50:00,
2013-09-13 13:55:00,56.2,52.4,29.95,NNE,32,4.0,4.0,87,0.00,,,0.13,294,WeatherCatV1.21B27,2013-09-13 17:55:00,
2013-09-13 14:00:00,56.4,52.3,29.95,North,1,2.0,3.0,86,0.00,,,0.13,207,WeatherCatV1.21B27,2013-09-13 18:00:00,
2013-09-13 14:05:00,56.8,52.3,29.94,NE,38,4.0,7.0,85,0.00,,,0.13,410,WeatherCatV1.21B27,2013-09-13 18:05:00,
2013-09-13 14:10:00,57.5,52.0,29.94,NNW,333,3.0,6.0,82,0.00,,,0.13,257,WeatherCatV1.21B27,2013-09-13 18:10:00,
2013-09-13 14:15:00,57.6,51.8,29.94,NW,315,2.0,11.0,81,0.00,,,0.13,241,WeatherCatV1.21B27,2013-09-13 18:15:00,
2013-09-13 14:20:00,57.5,51.4,29.94,ENE,58,2.0,10.0,80,0.00,,,0.13,132,WeatherCatV1.21B27,2013-09-13 18:20:00,
2013-09-13 14:25:00,57.3,51.2,29.94,North,349,2.0,13.0,80,0.00,,,0.13,195,WeatherCatV1.21B27,2013-09-13 18:25:00,
2013-09-13 14:30:00,57.3,51.2,29.94,NNE,31,4.0,4.0,80,0.00,,,0.13,98,WeatherCatV1.21B27,2013-09-13 18:30:00,
2013-09-13 14:35:00,57.1,51.0,29.94,ENE,57,2.0,6.0,80,0.00,,,0.13,135,WeatherCatV1.21B27,2013-09-13 18:35:00,
2013-09-13 14:40:00,57.0,51.2,29.94,NW,317,0.0,3.0,81,0.00,,,0.13,243,WeatherCatV1.21B27,2013-09-13 18:40:00,
2013-09-13 14:45:00,57.1,51.3,29.94,NNW,344,3.0,11.0,81,0.00,,,0.13,281,WeatherCatV1.21B27,2013-09-13 18:45:00,
2013-09-13 14:50:00,57.6,51.8,29.94,North,6,1.0,6.0,81,0.00,,,0.13,343,WeatherCatV1.21B27,2013-09-13 18:50:00,
2013-09-13 14:55:00,58.4,52.2,29.94,NNW,344,1.0,11.0,80,0.00,,,0.13,285,WeatherCatV1.21B27,2013-09-13 18:55:00,
2013-09-13 15:00:00,59.0,52.2,29.94,NNE,17,5.0,11.0,78,0.00,,,0.13,287,WeatherCatV1.21B27,2013-09-13 19:00:00,
2013-09-13 15:05:00,59.0,51.8,29.94,East,101,3.0,16.0,77,0.00,,,0.13,246,WeatherCatV1.21B27,2013-09-13 19:05:00,
2013-09-13 15:10:00,59.0,52.2,29.94,North,354,11.0,14.0,78,0.00,,,0.13,294,WeatherCatV1.21B27,2013-09-13 19:10:00,
2013-09-13 15:15:00,59.0,51.8,29.94,NNW,346,4.0,11.0,77,0.00,,,0.13,234,WeatherCatV1.21B27,2013-09-13 19:15:00,
2013-09-13 15:20:00,58.9,51.7,29.94,North,6,2.0,11.0,77,0.00,,,0.13,325,WeatherCatV1.21B27,2013-09-13 19:20:00,
2013-09-13 15:25:00,58.7,51.9,29.94,NW,317,5.0,5.0,78,0.00,,,0.13,325,WeatherCatV1.21B27,2013-09-13 19:25:00,
2013-09-13 15:30:00,59.0,52.2,29.94,NNW,327,10.0,10.0,78,0.00,,,0.13,821,WeatherCatV1.21B27,2013-09-13 19:30:00,
2013-09-13 15:35:00,60.7,52.0,29.94,NNE,24,6.0,10.0,73,0.00,,,0.13,842,WeatherCatV1.21B27,2013-09-13 19:35:00,
2013-09-13 15:40:00,61.2,51.7,29.94,North,1,4.0,10.0,71,0.00,,,0.13,214,WeatherCatV1.21B27,2013-09-13 19:40:00,
2013-09-13 15:45:00,61.3,52.2,29.94,North,352,3.0,11.0,72,0.00,,,0.13,214,WeatherCatV1.21B27,2013-09-13 19:45:00,
2013-09-13 15:50:00,61.7,51.8,29.94,NNW,341,6.0,10.0,70,0.00,,,0.13,875,WeatherCatV1.21B27,2013-09-13 19:50:00,
2013-09-13 15:55:00,60.9,51.0,29.95,NE,36,5.0,14.0,70,0.00,,,0.13,227,WeatherCatV1.21B27,2013-09-13 19:55:00,
2013-09-13 16:00:00,60.6,51.1,29.95,North,11,4.0,6.0,71,0.00,,,0.13,269,WeatherCatV1.21B27,2013-09-13 20:00:00,
2013-09-13 16:05:00,60.1,50.7,29.95,North,6,4.0,15.0,71,0.00,,,0.13,153,WeatherCatV1.21B27,2013-09-13 20:05:00,
2013-09-13 16:10:00,59.0,50.0,29.95,NNW,342,9.0,23.0,72,0.00,,,0.13,221,WeatherCatV1.21B27,2013-09-13 20:10:00,
2013-09-13 16:15:00,59.0,50.3,29.95,NNW,327,2.0,12.0,73,0.00,,,0.13,213,WeatherCatV1.21B27,2013-09-13 20:15:00,
2013-09-13 16:20:00,59.0,50.7,29.95,NNW,334,7.0,12.0,74,0.00,,,0.13,142,WeatherCatV1.21B27,2013-09-13 20:20:00,
2013-09-13 16:25:00,59.0,51.1,29.95,NNW,335,6.0,14.0,75,0.00,,,0.13,163,WeatherCatV1.21B27,2013-09-13 20:25:00,
2013-09-13 16:30:00,58.6,50.7,29.95,NNW,330,7.0,9.0,75,0.00,,,0.13,218,WeatherCatV1.21B27,2013-09-13 20:30:00,
2013-09-13 16:35:00,58.4,50.9,29.96,WNW,298,6.0,13.0,76,0.00,,,0.13,244,WeatherCatV1.21B27,2013-09-13 20:35:00,
2013-09-13 16:40:00,58.3,50.8,29.95,NE,50,0.0,6.0,76,0.00,,,0.13,271,WeatherCatV1.21B27,2013-09-13 20:40:00,
2013-09-13 16:45:00,58.3,50.8,29.95,North,1,3.0,17.0,76,0.00,,,0.13,223,WeatherCatV1.21B27,2013-09-13 20:45:00,
2013-09-13 16:50:00,58.4,50.5,29.96,ENE,65,4.0,12.0,75,0.00,,,0.13,213,WeatherCatV1.21B27,2013-09-13 20:50:00,
2013-09-13 16:55:00,58.4,50.5,29.96,North,351,0.0,13.0,75,0.00,,,0.13,209,WeatherCatV1.21B27,2013-09-13 20:55:00,
2013-09-13 17:00:00,58.1,50.2,29.96,NE,36,3.0,10.0,75,0.00,,,0.13,183,WeatherCatV1.21B27,2013-09-13 21:00:00,
2013-09-13 17:05:00,57.9,50.4,29.96,NW,304,17.0,21.0,76,0.00,,,0.13,149,WeatherCatV1.21B27,2013-09-13 21:05:00,
2013-09-13 17:10:00,57.7,50.2,29.96,North,1,3.0,16.0,76,0.00,,,0.13,155,WeatherCatV1.21B27,2013-09-13 21:10:00,
2013-09-13 17:15:00,57.5,50.0,29.96,NE,34,2.0,12.0,76,0.00,,,0.13,93,WeatherCatV1.21B27,2013-09-13 21:15:00,
2013-09-13 17:20:00,57.3,50.2,29.96,ENE,71,0.0,11.0,77,0.00,,,0.13,113,WeatherCatV1.21B27,2013-09-13 21:20:00,
2013-09-13 17:25:00,57.2,50.4,29.96,North,6,3.0,7.0,78,0.00,,,0.13,127,WeatherCatV1.21B27,2013-09-13 21:25:00,
2013-09-13 17:30:00,57.2,50.4,29.97,North,6,2.0,13.0,78,0.00,,,0.13,105,WeatherCatV1.21B27,2013-09-13 21:30:00,
2013-09-13 17:35:00,57.0,50.2,29.97,NNE,21,0.0,7.0,78,0.00,,,0.13,83,WeatherCatV1.21B27,2013-09-13 21:35:00,
2013-09-13 17:40:00,56.9,50.1,29.97,NE,38,0.0,5.0,78,0.00,,,0.13,81,WeatherCatV1.21B27,2013-09-13 21:40:00,
2013-09-13 17:45:00,56.9,50.1,29.97,North,351,0.0,3.0,78,0.00,,,0.13,70,WeatherCatV1.21B27,2013-09-13 21:45:00,
2013-09-13 17:49:00,56.8,50.0,29.97,North,356,4.0,10.0,78,0.00,,,0.13,81,WeatherCatV1.21B27,2013-09-13 21:49:00,
2013-09-13 17:54:00,56.7,49.2,29.97,ENE,78,0.0,6.0,76,0.00,,,0.13,90,WeatherCatV1.21B27,2013-09-13 21:54:00,
2013-09-13 17:59:00,56.7,49.2,29.97,NNW,335,0.0,9.0,76,0.00,,,0.13,81,WeatherCatV1.21B27,2013-09-13 21:59:00,
2013-09-13 18:04:00,56.7,49.2,29.97,NNW,338,3.0,7.0,76,0.00,,,0.13,69,WeatherCatV1.21B27,2013-09-13 22:04:00,
2013-09-13 18:09:00,56.7,49.2,29.97,WNW,302,1.0,7.0,76,0.00,,,0.13,72,WeatherCatV1.21B27,2013-09-13 22:09:00,
2013-09-13 18:14:00,56.7,49.6,29.97,NW,319,4.0,12.0,77,0.00,,,0.13,77,WeatherCatV1.21B27,2013-09-13 22:14:00,
2013-09-13 18:19:00,56.6,49.8,29.97,North,6,0.0,10.0,78,0.00,,,0.13,56,WeatherCatV1.21B27,2013-09-13 22:19:00,
2013-09-13 18:24:00,56.4,49.3,29.97,NE,37,6.0,13.0,77,0.00,,,0.13,63,WeatherCatV1.21B27,2013-09-13 22:24:00,
2013-09-13 18:29:00,56.3,48.8,29.97,WNW,288,3.0,6.0,76,0.00,,,0.13,47,WeatherCatV1.21B27,2013-09-13 22:29:00,
2013-09-13 18:34:00,56.3,49.2,29.98,North,1,1.0,12.0,77,0.00,,,0.13,28,WeatherCatV1.21B27,2013-09-13 22:34:00,
2013-09-13 18:39:00,56.2,49.1,29.98,East,81,0.0,9.0,77,0.00,,,0.13,26,WeatherCatV1.21B27,2013-09-13 22:39:00,
2013-09-13 18:44:00,56.1,49.3,29.98,NW,321,0.0,7.0,78,0.00,,,0.13,25,WeatherCatV1.21B27,2013-09-13 22:44:00,
2013-09-13 18:49:00,55.9,49.5,29.98,NNE,30,4.0,9.0,79,0.00,,,0.13,25,WeatherCatV1.21B27,2013-09-13 22:49:00,
2013-09-13 18:54:00,55.8,49.4,29.98,NW,310,5.0,9.0,79,0.00,,,0.13,16,WeatherCatV1.21B27,2013-09-13 22:54:00,
2013-09-13 18:59:00,55.7,49.3,29.98,North,350,0.0,0.0,79,0.00,,,0.13,7,WeatherCatV1.21B27,2013-09-13 22:59:00,
2013-09-13 19:04:00,55.7,49.6,29.99,NE,45,1.0,6.0,80,0.00,,,0.13,7,WeatherCatV1.21B27,2013-09-13 23:04:00,
2013-09-13 19:09:00,55.5,49.4,29.99,WNW,303,1.0,7.0,80,0.00,,,0.13,11,WeatherCatV1.21B27,2013-09-13 23:09:00,
2013-09-13 19:14:00,55.4,49.3,29.99,NW,324,8.0,8.0,80,0.00,,,0.13,9,WeatherCatV1.21B27,2013-09-13 23:14:00,
2013-09-13 19:19:00,55.3,49.2,29.99,NNW,333,1.0,7.0,80,0.00,,,0.13,0,WeatherCatV1.21B27,2013-09-13 23:19:00,
2013-09-13 19:24:00,55.3,49.6,29.99,NW,323,0.0,1.0,81,0.00,,,0.13,0,WeatherCatV1.21B27,2013-09-13 23:24:00,
2013-09-13 19:29:00,55.2,49.5,29.99,NNW,331,2.0,6.0,81,0.00,,,0.13,0,WeatherCatV1.21B27,2013-09-13 23:29:00,
2013-09-13 19:34:00,55.0,49.3,29.99,NNW,348,3.0,5.0,81,0.00,,,0.13,0,WeatherCatV1.21B27,2013-09-13 23:34:00,
2013-09-13 19:39:00,54.8,48.8,29.99,NNE,15,4.0,6.0,80,0.00,,,0.13,0,WeatherCatV1.21B27,2013-09-13 23:39:00,
2013-09-13 19:44:00,54.7,48.3,30.00,NNE,15,2.0,7.0,79,0.00,,,0.13,0,WeatherCatV1.21B27,2013-09-13 23:44:00,
2013-09-13 19:49:00,54.7,48.3,30.00,NW,314,9.0,11.0,79,0.00,,,0.13,0,WeatherCatV1.21B27,2013-09-13 23:49:00,
2013-09-13 19:54:00,54.6,48.2,30.00,NNW,336,0.0,12.0,79,0.00,,,0.13,0,WeatherCatV1.21B27,2013-09-13 23:54:00,
2013-09-13 19:59:00,54.7,48.7,30.00,NW,324,0.0,14.0,80,0.00,,,0.13,0,WeatherCatV1.21B27,2013-09-13 23:59:00,
2013-09-13 20:04:00,54.7,48.7,30.00,NW,315,0.0,4.0,80,0.00,,,0.13,0,WeatherCatV1.21B27,2013-09-14 00:04:00,
2013-09-13 20:09:00,54.7,49.0,30.00,NNW,340,5.0,14.0,81,0.00,,,0.13,0,WeatherCatV1.21B27,2013-09-14 00:09:00,
2013-09-13 20:14:00,54.6,48.9,30.01,WNW,292,1.0,10.0,81,0.00,,,0.13,0,WeatherCatV1.21B27,2013-09-14 00:14:00,
2013-09-13 20:19:00,54.6,48.9,30.01,NNW,341,0.0,11.0,81,0.00,,,0.13,0,WeatherCatV1.21B27,2013-09-14 00:19:00,
2013-09-13 20:24:00,54.5,48.8,30.01,NNW,336,0.0,2.0,81,0.00,,,0.13,0,WeatherCatV1.21B27,2013-09-14 00:24:00,
2013-09-13 20:29:00,54.4,48.7,30.01,NW,319,1.0,3.0,81,0.00,,,0.13,0,WeatherCatV1.21B27,2013-09-14 00:29:00,
2013-09-13 20:34:00,54.4,48.7,30.01,NW,323,0.0,2.0,81,0.00,,,0.13,0,WeatherCatV1.21B27,2013-09-14 00:34:00,
2013-09-13 20:39:00,54.3,48.3,30.01,NNE,16,0.0,7.0,80,0.00,,,0.13,0,WeatherCatV1.21B27,2013-09-14 00:39:00,
2013-09-13 20:44:00,54.2,48.2,30.02,NNW,339,0.0,9.0,80,0.00,,,0.13,0,WeatherCatV1.21B27,2013-09-14 00:44:00,
2013-09-13 20:49:00,54.2,47.8,30.02,NE,52,0.0,5.0,79,0.00,,,0.13,0,WeatherCatV1.21B27,2013-09-14 00:49:00,
2013-09-13 20:54:00,54.3,47.9,30.02,NNW,331,2.0,3.0,79,0.00,,,0.13,0,WeatherCatV1.21B27,2013-09-14 00:54:00,
2013-09-13 20:59:00,54.3,47.9,30.02,NNW,327,0.0,5.0,79,0.00,,,0.13,0,WeatherCatV1.21B27,2013-09-14 00:59:00,
2013-09-13 21:04:00,54.3,48.6,30.02,NNW,330,3.0,10.0,81,0.00,,,0.13,0,WeatherCatV1.21B27,2013-09-14 01:04:00,
2013-09-13 21:09:00,54.1,48.4,30.02,NNW,329,2.0,2.0,81,0.00,,,0.13,0,WeatherCatV1.21B27,2013-09-14 01:09:00,
2013-09-13 21:14:00,54.0,48.6,30.02,North,1,2.0,6.0,82,0.00,,,0.13,0,WeatherCatV1.21B27,2013-09-14 01:14:00,
2013-09-13 21:19:00,53.9,48.9,30.02,NNE,27,4.0,10.0,83,0.00,,,0.13,0,WeatherCatV1.21B27,2013-09-14 01:19:00,
2013-09-13 21:24:00,53.8,49.1,30.03,NNE,19,0.0,2.0,84,0.00,,,0.13,0,WeatherCatV1.21B27,2013-09-14 01:24:00,
2013-09-13 21:29:00,53.7,49.0,30.03,NNE,28,0.0,2.0,84,0.00,,,0.13,0,WeatherCatV1.21B27,2013-09-14 01:29:00,
2013-09-13 21:34:00,53.6,48.9,30.03,NW,321,0.0,3.0,84,0.00,,,0.13,0,WeatherCatV1.21B27,2013-09-14 01:34:00,
2013-09-13 21:39:00,53.6,48.6,30.03,North,353,0.0,7.0,83,0.00,,,0.13,0,WeatherCatV1.21B27,2013-09-14 01:39:00,
2013-09-13 21:44:00,53.5,48.5,30.03,NNE,29,0.0,6.0,83,0.00,,,0.13,0,WeatherCatV1.21B27,2013-09-14 01:44:00,
2013-09-13 21:49:00,53.5,48.5,30.02,NNW,334,0.0,0.0,83,0.00,,,0.13,0,WeatherCatV1.21B27,2013-09-14 01:49:00,
2013-09-13 21:54:00,53.5,48.1,30.03,NNE,15,2.0,6.0,82,0.00,,,0.13,0,WeatherCatV1.21B27,2013-09-14 01:54:00,
2013-09-13 21:59:00,53.6,47.9,30.03,NNW,339,0.0,6.0,81,0.00,,,0.13,0,WeatherCatV1.21B27,2013-09-14 01:59:00,
2013-09-13 22:04:00,53.6,47.6,30.03,NE,36,0.0,5.0,80,0.00,,,0.13,0,WeatherCatV1.21B27,2013-09-14 02:04:00,
2013-09-13 22:09:00,53.6,47.6,30.03,NNW,329,0.0,4.0,80,0.00,,,0.13,0,WeatherCatV1.21B27,2013-09-14 02:09:00,
2013-09-13 22:14:00,53.5,47.2,30.03,ENE,75,6.0,9.0,79,0.00,,,0.13,0,WeatherCatV1.21B27,2013-09-14 02:14:00,
2013-09-13 22:19:00,53.4,47.4,30.04,North,6,0.0,11.0,80,0.00,,,0.13,0,WeatherCatV1.21B27,2013-09-14 02:19:00,
2013-09-13 22:24:00,53.4,47.4,30.04,North,352,6.0,7.0,80,0.00,,,0.13,0,WeatherCatV1.21B27,2013-09-14 02:24:00,
2013-09-13 22:29:00,53.4,47.4,30.04,NW,313,1.0,4.0,80,0.00,,,0.13,0,WeatherCatV1.21B27,2013-09-14 02:29:00,
2013-09-13 22:34:00,53.4,47.0,30.03,NNW,337,11.0,13.0,79,0.00,,,0.13,0,WeatherCatV1.21B27,2013-09-14 02:34:00,
2013-09-13 22:39:00,53.4,47.0,30.03,NNW,327,0.0,10.0,79,0.00,,,0.13,0,WeatherCatV1.21B27,2013-09-14 02:39:00,
2013-09-13 22:44:00,53.5,47.2,30.03,NW,323,4.0,6.0,79,0.00,,,0.13,0,WeatherCatV1.21B27,2013-09-14 02:44:00,
2013-09-13 22:49:00,53.5,46.8,30.03,NW,323,2.0,3.0,78,0.00,,,0.13,0,WeatherCatV1.21B27,2013-09-14 02:49:00,
2013-09-13 22:54:00,53.6,46.9,30.03,NW,323,0.0,5.0,78,0.00,,,0.13,0,WeatherCatV1.21B27,2013-09-14 02:54:00,
2013-09-13 22:59:00,53.6,46.9,30.03,NNE,30,0.0,2.0,78,0.00,,,0.13,0,WeatherCatV1.21B27,2013-09-14 02:59:00,
2013-09-13 23:04:00,53.5,46.5,30.03,North,356,0.0,4.0,77,0.00,,,0.13,0,WeatherCatV1.21B27,2013-09-14 03:04:00,
2013-09-13 23:09:00,53.4,46.0,30.03,NW,312,0.0,7.0,76,0.00,,,0.13,0,WeatherCatV1.21B27,2013-09-14 03:09:00,
2013-09-13 23:14:00,53.3,45.9,30.03,NE,46,0.0,5.0,76,0.00,,,0.13,0,WeatherCatV1.21B27,2013-09-14 03:14:00,
2013-09-13 23:19:00,53.3,45.9,30.04,NNE,28,0.0,1.0,76,0.00,,,0.13,0,WeatherCatV1.21B27,2013-09-14 03:19:00,
2013-09-13 23:24:00,53.3,45.9,30.04,North,6,4.0,7.0,76,0.00,,,0.13,0,WeatherCatV1.21B27,2013-09-14 03:24:00,
2013-09-13 23:29:00,53.3,45.9,30.04,NE,38,0.0,1.0,76,0.00,,,0.13,0,WeatherCatV1.21B27,2013-09-14 03:29:00,
2013-09-13 23:34:00,53.3,46.3,30.04,NNE,21,0.0,3.0,77,0.00,,,0.13,0,WeatherCatV1.21B27,2013-09-14 03:34:00,
2013-09-13 23:39:00,53.2,46.2,30.04,NNW,333,5.0,5.0,77,0.00,,,0.13,0,WeatherCatV1.21B27,2013-09-14 03:39:00,
2013-09-13 23:44:00,53.1,46.1,30.04,NE,51,0.0,3.0,77,0.00,,,0.13,0,WeatherCatV1.21B27,2013-09-14 03:44:00,
2013-09-13 23:49:00,53.1,45.7,30.04,ENE,59,0.0,4.0,76,0.00,,,0.13,0,WeatherCatV1.21B27,2013-09-14 03:49:00,
2013-09-13 23:54:00,53.0,45.6,30.04,NNE,19,2.0,6.0,76,0.00,,,0.13,0,WeatherCatV1.21B27,2013-09-14 03:54:00,
2013-09-13 23:59:00,52.9,45.5,30.03,NNE,17,0.0,6.0,76,0.00,,,0.13,0,WeatherCatV1.21B27,2013-09-14 03:59:00,